Time;durP1;ratioP1;P1;durP2;ratioP2;P2;SDS_P1;SDS_P2;PMS_P1;PMS_P2;Temp;Humidity;BMP_temperature;BMP_pressure;BME280_temperature;BME280_humidity;BME280_pressure;Samples;Min_cycle;Max_cycle;Signal;HPM_P1;HPM_P2
2022/01/12 00:01:35;;;;;;;8.00;5.63;;;-1.40;99.90;;;;;;4953246;29;20911;-75
2022/01/12 00:04:00;;;;;;;8.77;5.90;;;-1.40;99.90;;;;;;4952966;29;20496;-74
2022/01/12 00:06:26;;;;;;;13.87;6.90;;;-1.40;99.90;;;;;;4951460;29;20187;-74
2022/01/12 00:08:51;;;;;;;9.40;5.73;;;-1.40;99.90;;;;;;4951643;29;20221;-75
2022/01/12 00:11:20;;;;;;;9.43;6.13;;;-1.40;99.90;;;;;;4952906;29;20294;-75
2022/01/12 00:13:46;;;;;;;5.90;4.27;;;-1.50;99.90;;;;;;4952865;29;20612;-74
2022/01/12 00:16:12;;;;;;;6.57;5.33;;;-1.50;99.90;;;;;;4953433;29;20481;-75
2022/01/12 00:18:37;;;;;;;8.87;5.60;;;-1.60;99.90;;;;;;4952860;29;20479;-75
2022/01/12 00:21:03;;;;;;;7.97;4.87;;;-1.50;99.90;;;;;;4953402;28;20420;-75
2022/01/12 00:23:28;;;;;;;5.80;5.20;;;-1.60;99.90;;;;;;4954936;29;20857;-73
2022/01/12 00:26:04;;;;;;;7.53;4.60;;;-1.60;99.90;;;;;;4956550;29;20429;-74
2022/01/12 00:34:04;;;;;;;9.50;4.63;;;-1.60;99.90;;;;;;4956343;29;20471;-73
2022/01/12 00:36:31;;;;;;;8.23;5.10;;;-1.70;99.90;;;;;;4956100;29;20400;-73
2022/01/12 00:38:57;;;;;;;8.93;5.53;;;-1.70;99.90;;;;;;4956494;28;20398;-74
2022/01/12 00:41:23;;;;;;;5.60;4.40;;;-1.70;99.90;;;;;;4956161;29;20461;-74
2022/01/12 00:43:56;;;;;;;8.30;5.77;;;-1.70;99.90;;;;;;4956086;29;20937;-73
2022/01/12 00:46:22;;;;;;;6.40;4.90;;;-1.80;99.90;;;;;;4956072;29;20172;-74
2022/01/12 00:48:48;;;;;;;7.27;4.67;;;-1.80;99.90;;;;;;4956122;28;20497;-74
2022/01/12 00:51:14;;;;;;;7.10;5.10;;;-1.80;99.90;;;;;;4955854;29;20206;-74
2022/01/12 00:53:40;;;;;;;7.60;4.60;;;-1.80;99.90;;;;;;4955779;29;20394;-74
2022/01/12 00:56:06;;;;;;;5.80;4.87;;;-1.80;99.90;;;;;;4955941;29;20220;-74
2022/01/12 00:58:33;;;;;;;8.77;5.60;;;-1.80;99.90;;;;;;4955857;29;20187;-74
2022/01/12 05:32:50;;;;;;;12.17;7.70;;;-3.50;99.90;;;;;;5079579;23;20519;-73
2022/01/12 05:35:18;;;;;;;14.03;7.10;;;-3.50;99.90;;;;;;4992304;28;20899;-71
2022/01/12 05:37:44;;;;;;;8.97;7.07;;;-3.50;99.90;;;;;;4994740;28;20193;-71
2022/01/12 05:40:10;;;;;;;11.17;8.20;;;-3.50;99.90;;;;;;4994099;28;20747;-72
2022/01/12 05:42:37;;;;;;;12.03;6.80;;;-3.60;99.90;;;;;;4974699;28;20494;-72
2022/01/12 05:45:04;;;;;;;11.63;6.77;;;-3.50;99.90;;;;;;4974052;28;20415;-71
2022/01/12 05:50:01;;;;;;;9.97;6.80;;;-3.50;99.90;;;;;;4974784;28;20391;-72
2022/01/12 05:52:27;;;;;;;9.37;6.60;;;-3.60;99.90;;;;;;4974604;28;20807;-72
2022/01/12 05:54:52;;;;;;;7.53;5.37;;;-3.60;99.90;;;;;;4972659;28;20459;-72
2022/01/12 05:57:18;;;;;;;16.37;8.77;;;-3.60;99.90;;;;;;4974512;28;20188;-72
2022/01/12 05:59:43;;;;;;;13.40;8.20;;;-3.60;99.90;;;;;;4974423;28;20176;-72
2022/01/12 06:02:09;;;;;;;11.60;6.30;;;-3.60;99.90;;;;;;4973968;28;20212;-72
2022/01/12 06:04:35;;;;;;;15.30;7.00;;;-3.60;99.90;;;;;;4973178;28;20637;-72
2022/01/12 06:07:02;;;;;;;11.70;6.70;;;-3.60;99.90;;;;;;4975790;28;20180;-71
2022/01/12 06:09:27;;;;;;;12.73;7.50;;;-3.60;99.90;;;;;;4975114;28;20180;-73
2022/01/12 06:11:53;;;;;;;13.40;7.70;;;-3.60;99.90;;;;;;4974688;28;21014;-72
2022/01/12 06:14:20;;;;;;;12.50;7.80;;;-3.60;99.90;;;;;;4973072;28;20255;-72
2022/01/12 06:16:46;;;;;;;13.40;6.83;;;-3.60;99.90;;;;;;4973971;28;20164;-72
2022/01/12 06:19:12;;;;;;;12.90;6.50;;;-3.60;99.90;;;;;;4971820;28;20395;-73
2022/01/12 06:21:37;;;;;;;12.07;7.13;;;-3.60;99.90;;;;;;4974447;28;20431;-72
2022/01/12 06:24:03;;;;;;;8.90;6.53;;;-3.60;99.90;;;;;;4972422;28;20219;-73
2022/01/12 06:26:29;;;;;;;12.40;7.43;;;-3.60;99.90;;;;;;4973873;28;20648;-72
2022/01/12 06:31:37;;;;;;;17.30;8.53;;;-3.50;99.90;;;;;;4973302;28;20299;-73
2022/01/12 06:34:02;;;;;;;13.00;8.00;;;-3.50;99.90;;;;;;4972945;28;20451;-73
2022/01/12 06:36:28;;;;;;;13.77;8.60;;;-3.50;99.90;;;;;;4972635;28;20992;-73
2022/01/12 06:38:54;;;;;;;17.10;7.60;;;-3.50;99.90;;;;;;4974170;28;20191;-73
2022/01/12 06:41:20;;;;;;;13.70;8.40;;;-3.40;99.90;;;;;;4974648;28;20224;-73
2022/01/12 06:43:46;;;;;;;14.87;8.77;;;-3.50;99.90;;;;;;4973793;28;20200;-73
2022/01/12 06:46:19;;;;;;;10.87;8.30;;;-3.50;99.90;;;;;;4974079;28;20423;-73
2022/01/12 06:48:44;;;;;;;14.37;9.17;;;-3.50;99.90;;;;;;4975906;28;20404;-73
2022/01/12 06:51:10;;;;;;;12.00;8.83;;;-3.50;99.90;;;;;;4973734;28;20442;-72
2022/01/12 06:53:36;;;;;;;9.17;7.27;;;-3.50;99.90;;;;;;4973485;28;20589;-73
2022/01/12 06:56:03;;;;;;;12.23;7.37;;;-3.40;99.90;;;;;;4972716;28;20177;-72
2022/01/12 06:58:28;;;;;;;11.93;6.90;;;-3.50;99.90;;;;;;4973188;28;20200;-72
2022/01/12 07:00:54;;;;;;;12.63;8.23;;;-3.50;99.90;;;;;;4972972;28;20500;-73
2022/01/12 07:03:19;;;;;;;11.83;8.40;;;-3.50;99.90;;;;;;4973000;28;20215;-73
2022/01/12 07:05:46;;;;;;;12.93;7.57;;;-3.50;99.90;;;;;;4973837;28;20640;-73
2022/01/12 07:08:12;;;;;;;13.40;8.10;;;-3.40;99.90;;;;;;4972759;28;20207;-72
2022/01/12 07:10:37;;;;;;;14.90;8.20;;;-3.40;99.90;;;;;;4973702;28;20428;-72
2022/01/12 07:13:03;;;;;;;17.90;9.80;;;-3.40;99.90;;;;;;4971130;28;20591;-73
2022/01/12 07:15:29;;;;;;;14.87;9.17;;;-3.40;99.90;;;;;;4972591;28;20228;-73
2022/01/12 07:17:55;;;;;;;12.60;8.73;;;-3.50;99.90;;;;;;4972529;28;20539;-73
2022/01/12 07:20:20;;;;;;;18.40;9.27;;;-3.40;99.90;;;;;;4972650;28;20430;-73
2022/01/12 07:22:46;;;;;;;17.30;9.33;;;-3.40;99.90;;;;;;4972949;28;20734;-73
2022/01/12 07:25:12;;;;;;;17.87;10.27;;;-3.40;99.90;;;;;;4972158;28;20184;-73
2022/01/12 07:27:39;;;;;;;19.67;10.13;;;-3.40;99.90;;;;;;4972669;28;20173;-73
2022/01/12 07:30:06;;;;;;;14.27;8.80;;;-3.40;99.90;;;;;;4971017;28;20255;-73
2022/01/12 07:32:31;;;;;;;17.07;9.30;;;-3.40;99.90;;;;;;4972675;28;20430;-73
2022/01/12 07:34:58;;;;;;;17.13;9.23;;;-3.40;99.90;;;;;;4972412;28;20415;-73
2022/01/12 07:37:23;;;;;;;14.33;8.70;;;-3.40;99.90;;;;;;4972621;28;20190;-73
2022/01/12 07:39:49;;;;;;;22.60;8.87;;;-3.30;99.90;;;;;;4972968;28;20744;-73
2022/01/12 07:42:15;;;;;;;15.43;9.80;;;-3.20;99.90;;;;;;4972548;28;20204;-73
2022/01/12 07:44:40;;;;;;;15.63;9.17;;;-3.10;99.90;;;;;;4972322;28;20172;-73
2022/01/12 07:47:06;;;;;;;20.53;10.20;;;-3.10;99.90;;;;;;4972240;28;20169;-73
2022/01/12 07:49:34;;;;;;;16.83;10.33;;;-2.90;99.90;;;;;;4971296;28;20180;-73
2022/01/12 07:52:00;;;;;;;13.47;10.53;;;-2.90;99.90;;;;;;4972415;28;20568;-74
2022/01/12 07:54:26;;;;;;;14.20;11.20;;;-2.70;99.90;;;;;;4972700;28;20434;-74
2022/01/12 07:56:51;;;;;;;18.23;11.00;;;-2.60;99.90;;;;;;4972801;28;20916;-73
2022/01/12 07:59:17;;;;;;;16.63;10.80;;;-2.50;99.90;;;;;;4971393;28;20425;-73
2022/01/12 08:01:43;;;;;;;16.80;11.20;;;-2.40;99.90;;;;;;4972409;28;20580;-72
2022/01/12 08:04:08;;;;;;;15.43;11.10;;;-2.20;99.90;;;;;;4970252;28;20220;-72
2022/01/12 08:06:34;;;;;;;20.57;12.10;;;-2.00;99.90;;;;;;4970884;28;20221;-72
2022/01/12 08:08:59;;;;;;;18.37;11.40;;;-1.80;99.90;;;;;;4972080;28;20195;-73
2022/01/12 08:11:25;;;;;;;22.63;12.53;;;-1.60;99.90;;;;;;4971304;28;20200;-73
2022/01/12 08:13:52;;;;;;;26.10;12.30;;;-1.50;99.90;;;;;;4972444;28;20261;-73
2022/01/12 08:16:18;;;;;;;21.50;13.20;;;-1.40;99.90;;;;;;4972638;28;20178;-73
2022/01/12 08:18:43;;;;;;;24.10;12.77;;;-1.30;99.90;;;;;;4971792;28;20812;-73
2022/01/12 08:21:10;;;;;;;18.63;12.00;;;-1.20;99.90;;;;;;4971572;28;20208;-72
2022/01/12 08:23:36;;;;;;;17.33;11.67;;;-1.10;99.90;;;;;;4972190;28;20255;-73
2022/01/12 08:26:01;;;;;;;20.30;12.60;;;-1.00;99.90;;;;;;4972458;28;20432;-72
2022/01/12 08:28:27;;;;;;;19.93;12.50;;;-0.80;99.90;;;;;;4971410;28;20638;-73
2022/01/12 08:30:53;;;;;;;25.13;14.73;;;-0.60;99.90;;;;;;4973214;28;20199;-72
2022/01/12 08:33:18;;;;;;;18.93;12.17;;;-0.50;99.90;;;;;;4972604;28;20187;-72
2022/01/12 08:35:44;;;;;;;18.83;13.20;;;-0.30;99.90;;;;;;4972477;28;20178;-72
2022/01/12 08:38:09;;;;;;;24.30;13.33;;;-0.20;99.90;;;;;;4972578;28;20178;-72
2022/01/12 08:40:38;;;;;;;24.23;13.77;;;-0.10;99.90;;;;;;4972400;28;20211;-72
2022/01/12 08:43:04;;;;;;;23.17;13.87;;;0.00;99.90;;;;;;4974316;28;20676;-71
2022/01/12 08:45:30;;;;;;;20.23;14.33;;;0.00;99.90;;;;;;4976207;28;20638;-72
2022/01/12 08:47:56;;;;;;;24.00;13.67;;;0.00;99.90;;;;;;4977100;28;20412;-72
2022/01/12 08:50:22;;;;;;;20.10;13.67;;;-0.10;99.90;;;;;;4975788;28;20841;-72
2022/01/12 08:52:48;;;;;;;23.40;14.20;;;-0.10;99.90;;;;;;4975744;28;20485;-72
2022/01/12 08:55:18;;;;;;;27.63;14.77;;;0.00;99.90;;;;;;4975568;28;20584;-72
2022/01/12 08:57:43;;;;;;;25.07;14.50;;;0.00;99.90;;;;;;4975931;28;20448;-72
2022/01/12 09:00:10;;;;;;;23.67;14.30;;;0.20;99.90;;;;;;4975134;28;20387;-72
2022/01/12 09:02:37;;;;;;;23.07;13.80;;;0.10;99.90;;;;;;4975002;28;20211;-72
2022/01/12 09:05:04;;;;;;;20.93;13.57;;;0.30;99.90;;;;;;4973747;28;20477;-72
2022/01/12 09:07:29;;;;;;;20.83;13.57;;;0.30;99.90;;;;;;4973495;28;20968;-72
2022/01/12 09:09:55;;;;;;;22.80;14.20;;;0.30;99.90;;;;;;4975384;28;20743;-72
2022/01/12 09:12:21;;;;;;;27.10;13.97;;;0.20;99.90;;;;;;4975164;28;20706;-72
2022/01/12 09:14:48;;;;;;;20.40;14.90;;;0.30;99.90;;;;;;4975238;28;20259;-72
2022/01/12 09:17:16;;;;;;;26.43;14.13;;;0.30;99.90;;;;;;4975183;28;20266;-72
2022/01/12 09:19:42;;;;;;;26.03;14.70;;;0.60;99.90;;;;;;4974817;28;20897;-72
2022/01/12 09:22:08;;;;;;;26.30;13.87;;;1.00;99.90;;;;;;4974174;28;20406;-72
2022/01/12 09:24:33;;;;;;;21.50;14.63;;;1.40;99.90;;;;;;4974409;28;20391;-72
2022/01/12 09:27:00;;;;;;;20.50;13.13;;;2.00;99.90;;;;;;4975004;28;20180;-72
2022/01/12 09:29:25;;;;;;;15.20;12.20;;;2.60;99.90;;;;;;4973850;28;20186;-72
2022/01/12 09:31:51;;;;;;;17.37;12.23;;;3.20;99.90;;;;;;4973994;28;20455;-72
2022/01/12 09:34:17;;;;;;;19.73;14.20;;;3.70;99.90;;;;;;4974814;28;20172;-72
2022/01/12 09:36:42;;;;;;;18.93;12.53;;;4.00;99.90;;;;;;4975060;28;20172;-72
2022/01/12 09:39:09;;;;;;;14.20;10.93;;;3.90;99.90;;;;;;4973361;28;20180;-72
2022/01/12 09:41:35;;;;;;;12.20;10.13;;;4.20;99.90;;;;;;4974874;28;20220;-72
2022/01/12 09:44:02;;;;;;;14.60;9.73;;;4.10;99.90;;;;;;4974670;28;20992;-71
2022/01/12 09:46:28;;;;;;;15.43;10.80;;;4.40;99.90;;;;;;4973984;28;20387;-71
2022/01/12 09:48:55;;;;;;;13.30;9.77;;;4.50;99.90;;;;;;4973627;28;20478;-72
2022/01/12 09:51:22;;;;;;;15.20;9.10;;;4.50;99.90;;;;;;4973219;28;20440;-71
2022/01/12 09:53:49;;;;;;;12.93;9.10;;;4.90;99.90;;;;;;4974498;28;20811;-71
2022/01/12 09:56:21;;;;;;;13.70;10.03;;;5.20;99.90;;;;;;4974307;28;20932;-72
2022/01/12 09:58:54;;;;;;;15.67;10.90;;;5.20;99.90;;;;;;4974783;28;20426;-71
2022/01/12 10:01:29;;;;;;;11.57;9.10;;;5.20;99.90;;;;;;4974240;28;20892;-71
2022/01/12 10:04:26;;;;;;;13.30;10.33;;;4.80;99.90;;;;;;4972997;28;20471;-71
2022/01/12 10:06:53;;;;;;;15.07;10.80;;;5.20;99.90;;;;;;4974395;28;20435;-71
2022/01/12 10:09:44;;;;;;;14.00;9.93;;;5.20;99.90;;;;;;4974132;28;20421;-72
2022/01/12 10:12:19;;;;;;;14.17;10.10;;;5.40;99.90;;;;;;4972482;28;20546;-72
2022/01/12 10:14:50;;;;;;;12.07;9.60;;;5.50;99.90;;;;;;4974262;28;20778;-72
2022/01/12 10:17:18;;;;;;;11.40;9.07;;;5.80;99.90;;;;;;4974175;28;20431;-72
2022/01/12 10:19:44;;;;;;;11.57;9.43;;;6.00;99.90;;;;;;4973492;28;20417;-72
2022/01/12 10:22:14;;;;;;;16.00;10.17;;;5.90;99.90;;;;;;4973654;28;20417;-72
2022/01/12 10:24:42;;;;;;;13.37;9.90;;;5.80;99.90;;;;;;4972508;28;20237;-72
2022/01/12 10:27:16;;;;;;;14.17;10.53;;;6.00;99.90;;;;;;4973612;28;20989;-72
2022/01/12 10:29:42;;;;;;;15.03;10.50;;;6.10;99.90;;;;;;4974105;28;20469;-72
2022/01/12 10:32:10;;;;;;;13.80;10.20;;;6.20;99.90;;;;;;4972747;28;20465;-72
2022/01/12 10:34:40;;;;;;;16.90;11.27;;;6.10;99.90;;;;;;4972062;28;20504;-72
2022/01/12 10:37:12;;;;;;;18.10;12.20;;;6.00;99.90;;;;;;4972929;28;20476;-72
2022/01/12 10:39:42;;;;;;;17.93;12.67;;;5.90;99.90;;;;;;4973645;28;20434;-72
2022/01/12 10:42:10;;;;;;;17.63;11.73;;;5.60;99.90;;;;;;4954649;28;20455;-72
2022/01/12 10:44:40;;;;;;;20.40;13.13;;;5.40;99.90;;;;;;4954897;28;20397;-72
2022/01/12 10:47:16;;;;;;;20.80;13.80;;;5.10;99.90;;;;;;4954147;28;20423;-72
2022/01/12 10:50:04;;;;;;;16.73;13.93;;;5.40;99.90;;;;;;4954783;28;20500;-72
2022/01/12 10:52:34;;;;;;;17.17;12.70;;;5.50;99.90;;;;;;4953494;28;20856;-72
2022/01/12 10:55:06;;;;;;;22.90;14.90;;;5.50;99.90;;;;;;4953914;28;20430;-72
2022/01/12 10:57:34;;;;;;;22.90;13.70;;;5.70;99.90;;;;;;4954701;28;20966;-72
2022/01/12 11:00:09;;;;;;;22.27;14.07;;;5.70;99.90;;;;;;4954893;28;20986;-72
2022/01/12 11:02:37;;;;;;;22.80;15.17;;;5.60;99.90;;;;;;4954732;28;20454;-72
2022/01/12 11:05:04;;;;;;;23.30;14.27;;;5.50;99.90;;;;;;4954518;28;20433;-72
2022/01/12 11:07:30;;;;;;;21.30;13.80;;;5.00;99.90;;;;;;4954256;28;20787;-72
2022/01/12 11:09:57;;;;;;;17.20;12.60;;;4.90;99.90;;;;;;4954034;28;20395;-72
2022/01/12 11:12:23;;;;;;;16.70;13.13;;;5.00;99.90;;;;;;4953126;28;21027;-72
2022/01/12 11:14:50;;;;;;;19.93;13.00;;;5.30;99.90;;;;;;4954083;28;20490;-72
2022/01/12 11:17:16;;;;;;;19.10;13.77;;;5.30;99.90;;;;;;4953727;28;20934;-72
2022/01/12 11:20:07;;;;;;;19.00;13.17;;;5.50;99.90;;;;;;4953582;28;20434;-72
2022/01/12 11:22:56;;;;;;;26.57;13.07;;;5.50;99.90;;;;;;4953258;28;20555;-72
2022/01/12 11:25:35;;;;;;;19.50;13.07;;;5.40;99.90;;;;;;4952972;28;20546;-72
2022/01/12 11:28:06;;;;;;;19.33;13.07;;;5.40;99.90;;;;;;4953509;28;20480;-72
2022/01/12 11:30:34;;;;;;;16.87;11.43;;;5.40;99.90;;;;;;4953253;28;20473;-72
2022/01/12 11:33:01;;;;;;;15.50;11.20;;;5.10;99.90;;;;;;4953319;28;20448;-72
2022/01/12 11:35:30;;;;;;;17.50;12.67;;;5.00;99.90;;;;;;4953651;28;20436;-72
2022/01/12 11:38:00;;;;;;;14.80;11.60;;;4.90;99.90;;;;;;4953655;28;20698;-72
2022/01/12 11:40:54;;;;;;;16.57;12.17;;;4.80;99.90;;;;;;4953443;28;20475;-72
2022/01/12 11:43:28;;;;;;;19.97;11.30;;;4.60;99.90;;;;;;4951680;29;20478;-71
2022/01/12 11:46:11;;;;;;;16.90;12.03;;;4.60;99.90;;;;;;4954230;28;20952;-71
2022/01/12 11:48:54;;;;;;;26.73;11.90;;;4.60;99.90;;;;;;4954067;28;20488;-72
2022/01/12 11:51:41;;;;;;;18.27;12.27;;;4.50;99.90;;;;;;4953283;28;20465;-71
2022/01/12 11:54:14;;;;;;;17.03;12.10;;;4.30;99.90;;;;;;4953447;28;20387;-71
2022/01/12 11:56:54;;;;;;;16.30;11.30;;;4.00;99.90;;;;;;4953823;28;20420;-72
2022/01/12 11:59:20;;;;;;;16.30;12.23;;;4.10;99.90;;;;;;4952107;29;20395;-71
2022/01/12 12:01:51;;;;;;;17.57;12.47;;;4.00;99.90;;;;;;4953410;28;20563;-72
2022/01/12 12:04:27;;;;;;;16.00;11.10;;;4.10;99.90;;;;;;4952472;28;20959;-71
2022/01/12 12:07:13;;;;;;;16.10;12.17;;;4.10;99.90;;;;;;4953809;28;20904;-71
2022/01/12 12:09:48;;;;;;;17.20;10.70;;;4.10;99.90;;;;;;4952762;28;20399;-71
2022/01/12 12:12:19;;;;;;;15.60;11.23;;;3.90;99.90;;;;;;4952403;28;20420;-72
2022/01/12 12:14:53;;;;;;;12.60;9.40;;;3.70;99.90;;;;;;4953558;28;20467;-71
2022/01/12 12:17:19;;;;;;;16.57;11.07;;;3.70;99.90;;;;;;4954162;28;20898;-71
2022/01/12 12:19:46;;;;;;;12.73;9.50;;;3.70;99.90;;;;;;4957070;28;20390;-72
2022/01/12 12:22:16;;;;;;;23.10;11.77;;;3.70;99.90;;;;;;4954630;28;20902;-72
2022/01/12 12:24:42;;;;;;;16.47;11.30;;;3.30;99.90;;;;;;4956974;28;20948;-71
2022/01/12 12:27:10;;;;;;;15.90;11.43;;;3.40;99.90;;;;;;4956557;28;20555;-72
2022/01/12 12:29:37;;;;;;;15.70;11.27;;;3.60;99.90;;;;;;4956224;28;20456;-72
2022/01/12 12:32:04;;;;;;;18.80;11.23;;;3.60;99.90;;;;;;4956219;28;20442;-72
2022/01/12 12:34:31;;;;;;;13.80;10.47;;;3.40;99.90;;;;;;4956116;28;20395;-72
2022/01/12 12:37:05;;;;;;;18.77;11.47;;;3.40;99.90;;;;;;4957179;28;20980;-72
2022/01/12 12:39:33;;;;;;;19.20;11.60;;;3.30;99.90;;;;;;4956763;28;20899;-71
2022/01/12 12:42:01;;;;;;;14.93;11.50;;;3.30;99.90;;;;;;4956265;28;20453;-72
2022/01/12 12:44:32;;;;;;;10.43;9.40;;;3.20;99.90;;;;;;4957807;28;20398;-71
2022/01/12 12:47:11;;;;;;;13.87;10.10;;;3.20;99.90;;;;;;4955844;29;20391;-71
2022/01/12 12:49:44;;;;;;;16.37;11.60;;;3.20;99.90;;;;;;4956329;28;20423;-71
2022/01/12 12:52:10;;;;;;;11.47;9.23;;;3.30;99.90;;;;;;4956578;28;20415;-71
2022/01/12 12:54:40;;;;;;;14.03;11.27;;;3.20;99.90;;;;;;4956378;28;20988;-71
2022/01/12 12:57:08;;;;;;;14.23;10.13;;;3.20;99.90;;;;;;4955424;28;20592;-71
2022/01/12 12:59:34;;;;;;;14.27;10.63;;;3.20;99.90;;;;;;4956256;28;20756;-71
2022/01/12 13:02:00;;;;;;;13.13;9.60;;;3.20;99.90;;;;;;4956066;28;20427;-71
2022/01/12 13:04:25;;;;;;;14.97;10.07;;;3.20;99.90;;;;;;4956081;28;20395;-71
2022/01/12 13:06:51;;;;;;;13.83;9.90;;;3.20;99.90;;;;;;4955780;28;20398;-71
2022/01/12 13:09:18;;;;;;;15.60;10.97;;;3.30;99.90;;;;;;4955543;28;20184;-71
2022/01/12 13:11:44;;;;;;;15.30;10.50;;;3.30;99.90;;;;;;4955818;28;20282;-71
2022/01/12 13:14:14;;;;;;;16.63;11.30;;;3.30;99.90;;;;;;4955026;28;20480;-71
2022/01/12 13:16:49;;;;;;;14.30;10.77;;;3.30;99.90;;;;;;4954656;28;20749;-71
2022/01/12 13:19:33;;;;;;;16.30;10.80;;;3.30;99.90;;;;;;4955446;28;20933;-71
2022/01/12 13:21:59;;;;;;;14.70;10.57;;;3.40;99.90;;;;;;4955152;28;20514;-71
2022/01/12 13:24:24;;;;;;;13.50;10.00;;;3.50;99.90;;;;;;4955804;28;20466;-71
2022/01/12 13:26:54;;;;;;;15.30;10.50;;;3.40;99.90;;;;;;4956143;28;20582;-71
2022/01/12 13:29:20;;;;;;;18.13;11.37;;;3.40;99.90;;;;;;4955333;28;20188;-71
2022/01/12 13:31:46;;;;;;;16.73;10.40;;;3.30;99.90;;;;;;4955013;28;20435;-74
2022/01/12 13:34:14;;;;;;;16.57;12.30;;;3.30;99.90;;;;;;4954182;28;20443;-72
2022/01/12 13:36:48;;;;;;;18.33;12.03;;;3.40;99.90;;;;;;4953923;28;20954;-70
2022/01/12 13:39:14;;;;;;;16.03;10.80;;;3.40;99.90;;;;;;4957058;28;20794;-73
2022/01/12 13:41:46;;;;;;;23.37;15.10;;;3.40;99.90;;;;;;4956964;28;20451;-71
2022/01/12 13:44:17;;;;;;;19.63;11.83;;;3.40;99.90;;;;;;4954622;28;20209;-71
2022/01/12 13:47:06;;;;;;;15.60;9.77;;;3.30;99.90;;;;;;4954779;28;20395;-71
2022/01/12 13:49:32;;;;;;;15.20;9.10;;;3.30;99.90;;;;;;4955554;28;20423;-71
2022/01/12 13:52:08;;;;;;;16.80;11.43;;;3.20;99.90;;;;;;4955179;28;20421;-71
2022/01/12 13:54:37;;;;;;;13.80;10.60;;;3.20;99.90;;;;;;4955127;28;20395;-71
2022/01/12 13:57:05;;;;;;;16.73;10.13;;;3.10;99.90;;;;;;4954420;28;20423;-71
2022/01/12 13:59:32;;;;;;;17.27;11.77;;;3.00;99.90;;;;;;4955214;28;20403;-71
2022/01/12 14:01:59;;;;;;;15.20;11.67;;;3.00;99.90;;;;;;4954419;28;20442;-71
2022/01/12 14:04:25;;;;;;;15.13;9.90;;;3.00;99.90;;;;;;4954707;28;20404;-71
2022/01/12 14:06:53;;;;;;;14.33;10.53;;;3.00;99.90;;;;;;4954691;28;20776;-71
2022/01/12 14:09:27;;;;;;;14.37;10.10;;;2.90;99.90;;;;;;4955011;28;20417;-71
2022/01/12 14:11:53;;;;;;;18.03;12.07;;;2.90;99.90;;;;;;4954419;28;20414;-71
2022/01/12 14:14:20;;;;;;;15.10;11.13;;;2.90;99.90;;;;;;4952739;29;20686;-72
2022/01/12 14:16:46;;;;;;;20.30;11.83;;;2.80;99.90;;;;;;4955149;28;20414;-71
2022/01/12 14:19:13;;;;;;;14.03;10.27;;;2.80;99.90;;;;;;4954538;28;20534;-71
2022/01/12 14:21:41;;;;;;;17.80;11.37;;;2.70;99.90;;;;;;4954966;28;20437;-71
2022/01/12 14:24:08;;;;;;;15.43;11.10;;;2.80;99.90;;;;;;4954991;28;20795;-71
2022/01/12 14:26:39;;;;;;;18.27;11.33;;;2.80;99.90;;;;;;4953722;28;20424;-71
2022/01/12 14:29:09;;;;;;;13.37;9.80;;;2.80;99.90;;;;;;4955019;28;20385;-71
2022/01/12 14:31:35;;;;;;;16.47;11.27;;;2.80;99.90;;;;;;4954566;28;20431;-71
2022/01/12 14:34:01;;;;;;;15.50;11.43;;;2.70;99.90;;;;;;4954899;28;20763;-71
2022/01/12 14:36:27;;;;;;;14.33;10.90;;;2.70;99.90;;;;;;4954091;28;20403;-71
2022/01/12 14:38:53;;;;;;;17.40;10.30;;;2.60;99.90;;;;;;4955606;28;20963;-72
2022/01/12 14:41:19;;;;;;;17.93;11.70;;;2.60;99.90;;;;;;4953326;28;20233;-71
2022/01/12 14:43:46;;;;;;;18.43;11.47;;;2.50;99.90;;;;;;4954576;28;20206;-71
2022/01/12 14:46:13;;;;;;;18.87;12.47;;;2.50;99.90;;;;;;4954263;28;20228;-71
2022/01/12 14:48:39;;;;;;;18.00;12.50;;;2.50;99.90;;;;;;4953925;28;20393;-71
2022/01/12 14:51:04;;;;;;;19.00;12.03;;;2.50;99.90;;;;;;4954203;28;20511;-72
2022/01/12 14:53:30;;;;;;;14.07;11.00;;;2.40;99.90;;;;;;4953288;28;20483;-71
2022/01/12 14:55:58;;;;;;;14.97;10.20;;;2.40;99.90;;;;;;4954284;28;20266;-71
2022/01/12 14:58:25;;;;;;;14.70;11.03;;;2.30;99.90;;;;;;4952257;29;20550;-72
2022/01/12 15:00:51;;;;;;;17.17;11.50;;;2.30;99.90;;;;;;4953643;28;20827;-71
2022/01/12 15:03:18;;;;;;;15.27;12.23;;;2.40;99.90;;;;;;4953686;28;20444;-71
2022/01/12 15:05:45;;;;;;;19.47;12.33;;;2.40;99.90;;;;;;4953298;28;20411;-72
2022/01/12 15:08:15;;;;;;;23.50;12.13;;;2.40;99.90;;;;;;4954216;28;21098;-71
2022/01/12 15:10:41;;;;;;;15.50;10.70;;;2.40;99.90;;;;;;4953135;28;20950;-72
2022/01/12 15:13:20;;;;;;;20.60;11.60;;;2.30;99.90;;;;;;4954339;29;20454;-72
2022/01/12 15:15:56;;;;;;;15.30;11.33;;;2.30;99.90;;;;;;4953399;29;20419;-72
2022/01/12 15:18:24;;;;;;;16.33;10.37;;;2.30;99.90;;;;;;4955055;28;20495;-72
2022/01/12 15:20:51;;;;;;;16.13;10.83;;;2.30;99.90;;;;;;4954904;28;20403;-72
2022/01/12 15:23:18;;;;;;;15.60;10.83;;;2.20;99.90;;;;;;4962829;23;20588;-72
2022/01/12 15:25:48;;;;;;;15.40;9.80;;;2.20;99.90;;;;;;4955619;29;20417;-72
2022/01/12 15:28:14;;;;;;;13.80;9.70;;;2.10;99.90;;;;;;4954595;28;20387;-72
2022/01/12 15:30:41;;;;;;;13.87;9.90;;;2.20;99.90;;;;;;4954418;28;20496;-72
2022/01/12 15:33:08;;;;;;;13.67;9.30;;;2.10;99.90;;;;;;4952278;29;20459;-72
2022/01/12 15:35:36;;;;;;;17.07;11.23;;;2.00;99.90;;;;;;4954310;28;20387;-72
2022/01/12 15:38:04;;;;;;;18.43;10.90;;;1.90;99.90;;;;;;4953153;28;20409;-72
2022/01/12 15:40:30;;;;;;;16.97;11.27;;;1.90;99.90;;;;;;4953516;28;20541;-72
2022/01/12 15:42:56;;;;;;;18.97;11.67;;;1.80;99.90;;;;;;4953449;28;20468;-72
2022/01/12 15:45:22;;;;;;;13.33;10.60;;;1.70;99.90;;;;;;4953761;28;20427;-72
2022/01/12 15:47:48;;;;;;;13.60;11.03;;;1.70;99.90;;;;;;4953206;29;20830;-72
2022/01/12 15:50:13;;;;;;;15.33;10.13;;;1.60;99.90;;;;;;4953077;28;20180;-72
2022/01/12 15:52:39;;;;;;;16.17;10.70;;;1.60;99.90;;;;;;4956211;28;20185;-72
2022/01/12 15:55:06;;;;;;;19.13;12.23;;;1.50;99.90;;;;;;4956236;29;20180;-72
2022/01/12 15:57:32;;;;;;;14.30;9.80;;;1.40;99.90;;;;;;4957013;28;20803;-73
2022/01/12 15:59:58;;;;;;;20.13;11.33;;;1.30;99.90;;;;;;4957076;29;20484;-73
2022/01/12 16:02:24;;;;;;;18.30;11.37;;;1.30;99.90;;;;;;4956589;28;20530;-73
2022/01/12 16:04:50;;;;;;;22.30;11.97;;;1.20;99.90;;;;;;4957048;29;20173;-72
2022/01/12 16:07:16;;;;;;;18.77;11.87;;;1.10;99.90;;;;;;4957437;28;20256;-72
2022/01/12 16:09:42;;;;;;;16.90;10.83;;;1.10;99.90;;;;;;4957108;28;20412;-73
2022/01/12 16:12:08;;;;;;;21.73;11.63;;;0.80;99.90;;;;;;4957140;28;20757;-73
2022/01/12 16:14:34;;;;;;;15.20;11.13;;;0.80;99.90;;;;;;4957727;28;20181;-71
2022/01/12 16:17:04;;;;;;;17.27;10.70;;;0.70;99.90;;;;;;4955699;29;20485;-71
2022/01/12 16:19:32;;;;;;;17.07;10.70;;;0.70;99.90;;;;;;4940557;29;20174;-71
2022/01/12 16:21:57;;;;;;;16.53;11.00;;;0.60;99.90;;;;;;4938483;29;20403;-71
2022/01/12 16:24:23;;;;;;;18.93;11.03;;;0.40;99.90;;;;;;4938502;29;20431;-71
2022/01/12 16:26:49;;;;;;;17.20;10.40;;;0.40;99.90;;;;;;4937936;29;20895;-71
2022/01/12 16:29:15;;;;;;;15.13;9.70;;;0.20;99.90;;;;;;4938411;29;20172;-71
2022/01/12 16:31:45;;;;;;;21.40;10.83;;;0.10;99.90;;;;;;4937381;29;20410;-71
2022/01/12 16:34:11;;;;;;;20.97;12.60;;;0.10;99.90;;;;;;4938648;29;20177;-71
2022/01/12 16:36:38;;;;;;;15.77;11.07;;;0.10;99.90;;;;;;4938417;29;20899;-72
2022/01/12 16:39:07;;;;;;;23.33;11.27;;;0.00;99.90;;;;;;4938676;29;20531;-71
2022/01/12 16:41:33;;;;;;;24.33;12.77;;;-0.10;99.90;;;;;;4936076;29;20464;-71
2022/01/12 16:43:59;;;;;;;21.77;13.33;;;-0.20;99.90;;;;;;4937079;29;20455;-71
2022/01/12 16:46:26;;;;;;;21.17;12.73;;;-0.20;99.90;;;;;;4937992;29;20384;-71
2022/01/12 16:48:52;;;;;;;15.17;10.43;;;-0.30;99.90;;;;;;4955869;28;20271;-71
2022/01/12 16:51:18;;;;;;;23.87;12.53;;;-0.30;99.90;;;;;;4954832;28;20410;-72
2022/01/12 16:53:45;;;;;;;20.60;12.53;;;-0.40;99.90;;;;;;4954116;29;20448;-71
2022/01/12 16:56:13;;;;;;;24.87;13.00;;;-0.40;99.90;;;;;;4955881;28;20252;-71
2022/01/12 16:58:41;;;;;;;20.37;11.73;;;-0.40;99.90;;;;;;4956654;28;20469;-71
2022/01/12 17:01:10;;;;;;;18.27;12.40;;;-0.40;99.90;;;;;;4956126;28;20410;-71
2022/01/12 17:03:43;;;;;;;17.53;10.70;;;-0.50;99.90;;;;;;4955143;28;20435;-71
2022/01/12 17:06:10;;;;;;;16.37;11.17;;;-0.50;99.90;;;;;;4955888;28;20827;-71
2022/01/12 17:08:39;;;;;;;18.97;11.00;;;-0.50;99.90;;;;;;4956272;28;20391;-71
2022/01/12 17:11:04;;;;;;;20.20;13.10;;;-0.40;99.90;;;;;;4956161;28;20407;-71
2022/01/12 17:13:30;;;;;;;19.10;12.40;;;-0.50;99.90;;;;;;4955721;29;20401;-71
2022/01/12 17:15:56;;;;;;;20.77;12.30;;;-0.50;99.90;;;;;;4956006;29;20177;-71
2022/01/12 17:18:47;;;;;;;18.97;12.03;;;-0.70;99.90;;;;;;4956288;28;20188;-71
2022/01/12 17:21:13;;;;;;;22.00;10.30;;;-0.70;99.90;;;;;;4956247;28;20414;-72
2022/01/12 17:24:02;;;;;;;17.97;11.40;;;-0.70;99.90;;;;;;4955625;28;20549;-72
2022/01/12 17:26:40;;;;;;;22.30;12.13;;;-0.80;99.90;;;;;;4955497;29;20583;-72